Latest Coastal Weather Observations for Red Rocks Point

IDW60701

Issued at 10:52 am WST Sunday 24 July 2016 (issued every 10 minutes, with the page automatically refreshed every 10 minutes)

About coastal observations | Map of coastal stations | Coastal observations for WA | Marine services | Other Formats
Station Details ID: 011053 Name: RED ROCKS POINT Lat: -32.20 Lon: 127.53 Height: 3.1 m
Data from the previous 72 hours. | See also: Recent months at Red Rocks Point
Date/Time
WST
Temp
°C
Wind Pressure Rain since
9am
mm
Weather Cloud Vis
km
Sea
Height
m
Swell
Dir  Spd
kts
Gust
kts
hPa Trend Height
m
Period
s
Dir
24/10:30am 14.1 WSW 13 18 1022.9 - 0.0 - - - - - - -
24/10:00am 12.7 WSW 15 26 1023.0 - 0.0 - - - - - - -
24/09:53am 13.1 SW 15 26 1022.9 - 0.0 - - - - - - -
24/09:30am 14.3 SW 13 19 1022.6 - 0.0 - - - - - - -
24/09:00am 13.4 SW 13 22 1022.2 - 1.0 - - - - - - -
24/08:30am 12.2 SW 14 23 1021.8 - 1.0 - - - - - - -
24/08:18am 12.3 SW 15 25 1021.7 - 1.0 - - - - - - -
24/08:00am 12.5 SW 14 19 1021.4 - 1.0 - - - - - - -
24/07:30am 10.3 W 9 17 1021.0 - 1.0 - - - - - - -
24/07:00am 8.3 W 7 10 1020.6 - 1.0 - - - - - - -
24/06:30am 8.5 NW 8 13 1020.2 - 1.0 - - - - - - -
24/06:00am 8.3 WNW 7 9 1019.8 - 1.0 - - - - - - -
24/05:30am 10.5 WSW 13 20 1019.3 - 1.0 - - - - - - -
24/05:01am 10.0 W 10 28 1019.1 - 1.0 - - - - - - -
24/05:00am 10.0 W 9 21 1019.2 - 1.0 - - - - - - -
24/04:36am 11.1 SW 15 25 1018.7 - 1.0 - - - - - - -
24/04:30am 11.4 WSW 16 25 1018.6 - 1.0 - - - - - - -
24/04:05am 11.2 SW 19 30 1018.3 - 1.0 - - - - - - -
24/04:00am 11.1 SW 18 26 1018.3 - 1.0 - - - - - - -
24/03:32am 11.0 SW 17 26 1018.2 - 1.0 - - - - - - -
24/03:30am 11.2 SW 17 26 1018.2 - 1.0 - - - - - - -
24/03:15am 10.8 WSW 16 27 1018.1 - 1.0 - - - - - - -
24/03:00am 10.1 WSW 15 22 1018.0 - 1.0 Recent precip. - - - - - -
24/02:46am 9.5 WSW 14 29 1018.1 - 1.0 - - - - - - -
24/02:30am 8.6 WNW 8 17 1017.9 - 0.8 - - - - - - -
24/02:00am 8.8 W 8 24 1017.8 - 0.8 - - - - - - -
24/01:30am 9.0 WNW 11 18 1017.6 - 0.8 - - - - - - -
24/01:00am 9.0 WNW 10 16 1017.5 - 0.8 - - - - - - -
24/12:30am 9.0 WNW 9 14 1017.3 - 0.8 - - - - - - -
24/12:00am 9.6 W 13 19 1017.3 - 0.8 Rain - - - - - -
 
Date/Time
WST
Temp
°C
Wind Pressure Rain since
9am
mm
Weather Cloud Vis
km
Sea
Height
m
Swell
Dir  Spd
kts
Gust
kts
hPa Trend Height
m
Period
s
Dir
23/11:30pm 10.2 WNW 9 13 1017.0 - 0.0 - - - - - - -
23/11:00pm 9.7 WNW 10 15 1017.0 - 0.0 - - - - - - -
23/10:30pm 9.2 WNW 7 11 1017.1 - 0.0 - - - - - - -
23/10:00pm 9.2 WNW 9 13 1017.2 - 0.0 - - - - - - -
23/09:30pm 8.8 NW 8 11 1016.9 - 0.0 - - - - - - -
23/09:00pm 8.8 NW 9 14 1017.0 - 0.0 - - - - - - -
23/08:30pm 8.2 NNW 9 14 1017.0 - 0.0 - - - - - - -
23/08:00pm 7.2 NNW 7 9 1017.4 - 0.0 - - - - - - -
23/07:30pm 7.4 NNW 6 8 1017.7 - 0.0 - - - - - - -
23/07:00pm 7.2 NNW 7 8 1017.9 - 0.0 - - - - - - -
23/06:30pm 7.1 NNW 4 6 1018.0 - 0.0 - - - - - - -
23/06:00pm 8.4 NW 4 5 1017.7 - 0.0 - - - - - - -
23/05:30pm 10.1 WNW 6 10 1017.3 - 0.0 - - - - - - -
23/05:00pm 11.3 WNW 7 13 1017.2 - 0.0 - - - - - - -
23/04:30pm 11.9 WNW 9 17 1017.1 - 0.0 - - - - - - -
23/04:00pm 12.4 WNW 9 16 1016.9 - 0.0 - - - - - - -
23/03:30pm 12.6 WNW 8 14 1017.2 - 0.0 - - - - - - -
23/03:00pm 12.8 WNW 9 15 1017.5 - 0.0 - - - - - - -
23/02:30pm 13.3 W 10 16 1017.5 - 0.0 - - - - - - -
23/02:00pm 13.5 W 11 18 1017.4 - 0.0 - - - - - - -
23/01:30pm 13.6 W 10 17 1017.6 - 0.0 - - - - - - -
23/01:00pm 14.9 WNW 11 15 1017.8 - 0.0 - - - - - - -
23/12:30pm 15.5 NW 11 17 1018.2 - 0.0 - - - - - - -
23/12:00pm 14.1 WNW 10 15 1018.6 - 0.0 - - - - - - -
23/11:30am 14.2 NW 10 14 1019.0 - 0.0 - - - - - - -
23/11:00am 15.0 WNW 9 15 1019.5 - 0.0 - - - - - - -
23/10:30am 13.2 WNW 9 14 1020.1 - 0.0 - - - - - - -
23/10:00am 12.5 WNW 10 15 1020.8 - 0.0 - - - - - - -
23/09:30am 10.4 WNW 8 13 1021.2 - 0.0 - - - - - - -
23/09:00am 9.5 WNW 7 11 1021.0 - 1.2 - - - - - - -
23/08:30am 7.9 NW 8 11 1021.2 - 1.2 - - - - - - -
23/08:00am 6.7 NW 8 12 1021.2 - 1.2 - - - - - - -
23/07:30am 6.7 NW 7 11 1021.1 - 1.2 - - - - - - -
23/07:00am 6.3 NW 7 10 1020.8 - 1.2 - - - - - - -
23/06:30am 6.8 NW 7 9 1020.5 - 1.2 - - - - - - -
23/06:00am 6.6 WNW 9 13 1020.3 - 1.2 - - - - - - -
23/05:30am 6.3 NW 8 11 1020.0 - 1.2 - - - - - - -
23/05:00am 6.0 NW 9 11 1019.7 - 1.2 - - - - - - -
23/04:30am 6.2 NW 8 11 1019.7 - 1.2 - - - - - - -
23/04:00am 6.3 NW 8 11 1019.6 - 1.2 - - - - - - -
23/03:30am 6.4 NW 9 12 1019.6 - 1.2 - - - - - - -
23/03:00am 6.4 WNW 8 11 1019.6 - 1.0 - - - - - - -
23/02:30am 6.2 NW 8 11 1019.8 - 1.0 - - - - - - -
23/02:00am 6.4 NW 9 12 1019.7 - 1.0 - - - - - - -
23/01:30am 6.5 NW 8 11 1019.9 - 1.0 - - - - - - -
23/01:00am 7.0 NW 8 11 1020.0 - 1.0 - - - - - - -
23/12:30am 7.5 NW 8 11 1020.1 - 1.0 - - - - - - -
23/12:00am 7.8 NW 7 10 1020.3 - 1.0 - - - - - - -
 
Date/Time
WST
Temp
°C
Wind Pressure Rain since
9am
mm
Weather Cloud Vis
km
Sea
Height
m
Swell
Dir  Spd
kts
Gust
kts
hPa Trend Height
m
Period
s
Dir
22/11:30pm 8.2 NW 8 10 1020.5 - 1.0 - - - - - - -
22/11:00pm 8.3 NW 7 9 1020.5 - 1.0 - - - - - - -
22/10:30pm 8.7 NW 8 11 1020.5 - 1.0 - - - - - - -
22/10:00pm 8.8 NW 7 11 1020.3 - 1.0 - - - - - - -
22/09:30pm 9.6 W 9 14 1020.5 - 1.0 - - - - - - -
22/09:00pm 8.9 NW 8 11 1020.3 - 1.0 Recent precip. - - - - - -
22/08:30pm 10.1 WSW 8 11 1020.2 - 1.0 - - - - - - -
22/08:00pm 9.4 WNW 9 13 1020.3 - 0.8 - - - - - - -
22/07:30pm 10.3 WSW 14 27 1019.7 - 0.2 - - - - - - -
22/07:22pm 11.1 SW 16 27 1019.8 - 0.2 - - - - - - -
22/07:00pm 9.6 NW 8 14 1019.5 - 0.0 - - - - - - -
22/06:30pm 9.8 W 6 9 1019.3 - 0.0 - - - - - - -
22/06:00pm 10.2 WNW 8 12 1018.8 - 0.0 - - - - - - -
22/05:30pm 10.5 WNW 9 13 1018.4 - 0.0 - - - - - - -
22/05:00pm 11.5 WSW 15 23 1018.1 - 0.0 - - - - - - -
22/04:31pm 11.9 SW 15 25 1017.5 - 0.0 - - - - - - -
22/04:30pm 11.9 WSW 16 25 1017.5 - 0.0 - - - - - - -
22/04:23pm 11.9 WSW 15 25 1017.6 - 0.0 - - - - - - -
22/04:00pm 12.4 W 14 23 1017.2 - 0.0 - - - - - - -
22/03:30pm 12.8 WSW 16 24 1017.1 - 0.0 - - - - - - -
22/03:00pm 12.7 WSW 17 27 1016.8 - 0.0 - - - - - - -
22/02:44pm 13.3 WSW 16 26 1016.6 - 0.0 - - - - - - -
22/02:30pm 11.8 WSW 17 26 1016.6 - 0.0 - - - - - - -
22/02:09pm 11.7 WSW 16 26 1016.3 - 0.0 - - - - - - -
22/02:00pm 12.8 WSW 19 27 1016.3 - 0.0 - - - - - - -
22/01:30pm 13.7 WSW 17 29 1015.8 - 0.0 - - - - - - -
22/01:00pm 13.1 WSW 18 31 1015.5 - 0.0 - - - - - - -
22/12:30pm 12.7 W 17 28 1015.2 - 0.0 - - - - - - -
22/12:00pm 11.4 WSW 20 32 1015.4 - 0.0 - - - - - - -
22/11:30am 10.6 W 20 31 1015.4 - 0.0 - - - - - - -
22/11:00am 12.8 WSW 20 31 1015.0 - 0.0 - - - - - - -
22/10:36am 13.4 W 21 31 1014.6 - 0.0 - - - - - - -
22/10:30am 13.6 W 19 28 1014.5 - 0.0 - - - - - - -
22/10:17am 13.8 W 16 27 1014.4 - 0.0 - - - - - - -
22/10:00am 13.2 W 13 23 1014.3 - 0.0 - - - - - - -
22/09:31am 13.2 W 16 26 1013.8 - 0.0 - - - - - - -
22/09:30am 13.1 W 17 26 1013.8 - 0.0 - - - - - - -
22/09:00am 13.4 W 16 26 1013.2 - 0.2 - - - - - - -
22/08:45am 12.6 W 16 33 1012.8 - 0.2 - - - - - - -
22/08:30am 13.1 W 16 25 1012.6 - 0.2 - - - - - - -
22/08:14am 12.5 W 15 30 1012.3 - 0.2 - - - - - - -
22/08:00am 12.3 W 14 23 1012.1 - 0.2 - - - - - - -
22/07:30am 11.7 WNW 15 25 1011.3 - 0.2 - - - - - - -
22/07:28am 11.7 WNW 15 25 1011.2 - 0.2 - - - - - - -
22/07:00am 10.9 WNW 12 19 1011.1 - 0.2 - - - - - - -
22/06:30am 10.8 WNW 14 22 1011.0 - 0.2 - - - - - - -
22/06:00am 11.3 WNW 16 28 1010.8 - 0.2 - - - - - - -
22/05:39am 11.5 W 15 27 1010.6 - 0.2 - - - - - - -
22/05:30am 11.1 WNW 13 19 1010.5 - 0.2 - - - - - - -
22/05:00am 11.3 WNW 13 22 1010.1 - 0.2 - - - - - - -
22/04:30am 11.5 WNW 12 21 1009.4 - 0.2 - - - - - - -
22/04:00am 11.7 WNW 13 23 1009.2 - 0.2 - - - - - - -
22/03:30am 11.9 WNW 12 19 1009.1 - 0.2 - - - - - - -
22/03:00am 12.3 WNW 13 22 1009.0 - 0.2 - - - - - - -
22/02:36am 12.7 WNW 15 26 1009.1 - 0.2 - - - - - - -
22/02:30am 12.8 WNW 14 23 1009.0 - 0.2 - - - - - - -
22/02:00am 13.1 WNW 13 20 1009.0 - 0.2 - - - - - - -
22/01:30am 13.4 WNW 12 18 1009.0 - 0.2 - - - - - - -
22/01:00am 13.8 WNW 12 18 1008.9 - 0.2 - - - - - - -
22/12:30am 14.2 WNW 13 19 1008.6 - 0.2 - - - - - - -
22/12:00am 14.5 WNW 11 18 1008.6 - 0.2 - - - - - - -
 
Date/Time
WST
Temp
°C
Wind Pressure Rain since
9am
mm
Weather Cloud Vis
km
Sea
Height
m
Swell
Dir  Spd
kts
Gust
kts
hPa Trend Height
m
Period
s
Dir
21/11:30pm 14.8 WNW 9 13 1008.6 - 0.2 - - - - - - -
21/11:00pm 15.3 WNW 11 17 1008.5 - 0.2 - - - - - - -
21/10:30pm 15.2 NW 10 16 1008.9 - 0.2 - - - - - - -
21/10:00pm 15.5 WNW 10 18 1008.8 - 0.2 - - - - - - -
21/09:30pm 15.6 NW 10 16 1008.5 - 0.2 - - - - - - -
21/09:00pm 15.6 NW 10 15 1009.1 - 0.2 - - - - - - -
21/08:30pm 15.5 NW 10 18 1008.7 - 0.2 - - - - - - -
21/08:00pm 15.0 NW 9 15 1009.0 - 0.2 - - - - - - -
21/07:30pm 14.9 NW 7 12 1008.8 - 0.2 - - - - - - -
21/07:00pm 15.0 NW 8 13 1009.1 - 0.2 - - - - - - -
21/06:30pm 15.4 NW 8 13 1008.5 - 0.2 - - - - - - -
21/06:00pm 15.6 NW 8 14 1008.4 - 0.2 - - - - - - -
21/05:30pm 15.6 NW 9 14 1007.8 - 0.2 - - - - - - -
21/05:00pm 16.1 NW 10 17 1008.0 - 0.2 - - - - - - -
21/04:30pm 16.5 NW 11 17 1007.7 - 0.2 - - - - - - -
21/04:00pm 16.8 WNW 9 14 1007.9 - 0.2 - - - - - - -
21/03:30pm 17.4 WNW 13 19 1007.8 - 0.2 - - - - - - -
21/03:24pm 17.4 WNW 15 25 1007.7 - 0.2 - - - - - - -
21/03:00pm 17.9 NW 14 23 1007.5 - 0.2 - - - - - - -
21/02:50pm 18.1 WNW 15 28 1007.1 - 0.2 - - - - - - -
21/02:30pm 18.4 WNW 13 26 1006.9 - 0.2 - - - - - - -
21/02:00pm 19.3 WNW 13 21 1006.8 - 0.2 - - - - - - -
21/01:30pm 18.0 WNW 9 16 1007.0 - 0.2 - - - - - - -
21/01:00pm 16.9 WNW 9 14 1007.1 - 0.2 - - - - - - -
21/12:30pm 17.1 WNW 8 16 1007.0 - 0.2 - - - - - - -
21/12:00pm 17.1 WNW 11 16 1007.8 - 0.2 - - - - - - -
21/11:30am 17.8 WNW 11 18 - - 0.2 - - - - - - -
21/11:00am 17.9 WNW 10 16 1008.3 - 0.2 - - - - - - -

Other Formats:

Comma delimited format used in spreadsheet applications
http://www.bom.gov.au/fwo/IDW60701/IDW60701.94644.axf

JavaScript Object Notation format (JSON) in row-major order
http://www.bom.gov.au/fwo/IDW60701/IDW60701.94644.json